Time;durP1;ratioP1;P1;durP2;ratioP2;P2;SDS_P1;SDS_P2;PMS_P1;PMS_P2;Temp;Humidity;BMP_temperature;BMP_pressure;BME280_temperature;BME280_humidity;BME280_pressure;Samples;Min_cycle;Max_cycle;Signal;HPM_P1;HPM_P2
2022/03/14 00:00:20;;;;;;;2.75;1.85;;;;;;;10.58;66.34;101536.22;4987032;28;20033;-65
2022/03/14 00:02:47;;;;;;;2.45;1.55;;;;;;;10.56;67.00;101538.19;4987340;28;20046;-64
2022/03/14 00:05:15;;;;;;;2.42;1.50;;;;;;;10.52;67.21;101539.34;5003868;28;20030;-64
2022/03/14 00:07:46;;;;;;;1.77;1.60;;;;;;;10.50;66.33;101538.56;4993387;28;20390;-70
2022/03/14 00:10:15;;;;;;;2.70;1.63;;;;;;;10.47;66.74;101545.94;4983158;28;20042;-70
2022/03/14 00:12:44;;;;;;;2.15;1.60;;;;;;;10.46;66.29;101546.03;4989581;28;20038;-67
2022/03/14 00:15:13;;;;;;;2.95;1.52;;;;;;;10.46;67.02;101551.47;4983230;28;20030;-71
2022/03/14 00:17:42;;;;;;;2.05;1.83;;;;;;;10.44;67.19;101559.75;4981240;28;20030;-70
2022/03/14 00:20:10;;;;;;;2.67;1.50;;;;;;;10.46;66.88;101559.63;4984356;28;20038;-69
2022/03/14 00:22:37;;;;;;;2.38;1.40;;;;;;;10.45;66.50;101555.16;4980879;28;20498;-71
2022/03/14 00:25:03;;;;;;;3.15;1.80;;;;;;;10.38;67.63;101560.09;4986015;28;20038;-64
2022/03/14 00:27:29;;;;;;;1.70;1.60;;;;;;;10.39;66.19;101566.41;4989087;28;20422;-65
2022/03/14 00:29:55;;;;;;;3.75;1.73;;;;;;;10.40;66.93;101573.63;4986468;28;20046;-66
2022/03/14 00:32:21;;;;;;;2.50;1.80;;;;;;;10.39;67.47;101570.00;4985262;28;20040;-72
2022/03/14 00:34:47;;;;;;;2.42;1.60;;;;;;;10.36;67.41;101567.47;4988485;28;20041;-65
2022/03/14 00:37:13;;;;;;;2.67;1.80;;;;;;;10.36;67.71;101581.06;4988661;28;20026;-64
2022/03/14 00:39:38;;;;;;;2.20;1.65;;;;;;;10.35;67.76;101586.59;4983029;28;20113;-71
2022/03/14 00:42:04;;;;;;;3.35;1.88;;;;;;;10.34;67.57;101580.28;4987800;28;20034;-64
2022/03/14 00:44:31;;;;;;;2.00;1.80;;;;;;;10.33;67.93;101593.97;4986090;28;20102;-71
2022/03/14 00:46:57;;;;;;;3.35;1.95;;;;;;;10.31;68.10;101587.78;4984728;28;20038;-65
2022/03/14 00:49:22;;;;;;;2.63;1.92;;;;;;;10.30;67.72;101591.44;4986958;28;20411;-66
2022/03/14 00:51:48;;;;;;;3.28;2.17;;;;;;;10.29;68.02;101595.13;4988558;28;20042;-66
2022/03/14 00:54:13;;;;;;;2.45;1.83;;;;;;;10.27;68.62;101595.22;4988494;28;20548;-65
2022/03/14 00:56:39;;;;;;;2.47;1.75;;;;;;;10.26;68.24;101600.72;4981181;28;20038;-68
2022/03/14 00:59:04;;;;;;;2.17;1.67;;;;;;;10.25;69.08;101599.84;4988583;28;20117;-66
2022/03/14 01:01:30;;;;;;;2.78;2.08;;;;;;;10.25;68.91;101607.16;4979011;28;20030;-67
2022/03/14 01:03:55;;;;;;;4.05;2.25;;;;;;;10.22;68.89;101611.78;4981555;28;20022;-71
2022/03/14 01:06:21;;;;;;;3.08;1.98;;;;;;;10.21;69.75;101620.00;4987436;28;20029;-71
2022/03/14 01:08:47;;;;;;;2.33;2.08;;;;;;;10.17;70.12;101621.19;4979756;28;20075;-66
2022/03/14 01:11:13;;;;;;;4.15;2.78;;;;;;;10.09;71.05;101621.63;4973078;28;20062;-69
2022/03/14 01:13:38;;;;;;;3.38;2.22;;;;;;;10.06;71.17;101621.78;4989132;28;20101;-71
2022/03/14 01:16:06;;;;;;;3.03;1.92;;;;;;;10.06;70.77;101632.66;4983311;28;20065;-71
2022/03/14 01:18:32;;;;;;;2.47;1.83;;;;;;;10.05;70.99;101625.47;4978535;28;20054;-70
2022/03/14 01:20:57;;;;;;;2.38;1.83;;;;;;;10.03;70.94;101621.97;4987675;28;20042;-71
2022/03/14 01:23:23;;;;;;;3.85;2.47;;;;;;;10.04;70.91;101626.44;4988755;28;20121;-67
2022/03/14 01:25:51;;;;;;;2.85;2.03;;;;;;;10.04;70.58;101634.59;4980236;28;20102;-72
2022/03/14 01:28:16;;;;;;;2.85;2.25;;;;;;;10.04;71.54;101628.28;4984207;28;20038;-65
2022/03/14 01:30:43;;;;;;;3.10;2.20;;;;;;;10.00;71.39;101643.88;4986547;28;20041;-71
2022/03/14 01:33:09;;;;;;;3.78;2.17;;;;;;;9.97;71.18;101654.94;4986325;28;20034;-65
2022/03/14 01:35:36;;;;;;;3.50;2.40;;;;;;;9.93;71.37;101648.81;4982091;28;20038;-65
2022/03/14 01:38:01;;;;;;;2.97;2.38;;;;;;;9.92;71.73;101657.03;4987362;28;20133;-71
2022/03/14 01:40:28;;;;;;;3.95;2.60;;;;;;;9.90;71.68;101648.09;4986573;28;20106;-65
2022/03/14 01:42:53;;;;;;;3.45;1.98;;;;;;;9.87;71.87;101654.56;4988318;28;20073;-68
2022/03/14 01:45:21;;;;;;;3.08;2.28;;;;;;;9.89;71.43;101652.66;4986146;28;20070;-69
2022/03/14 01:47:47;;;;;;;3.70;2.58;;;;;;;9.88;71.74;101650.88;4991176;28;20022;-66
2022/03/14 01:50:13;;;;;;;3.60;2.47;;;;;;;9.89;70.85;101651.78;4991560;28;20038;-70
2022/03/14 01:52:39;;;;;;;4.05;3.00;;;;;;;9.86;71.06;101655.53;4991696;28;20041;-71
2022/03/14 01:55:07;;;;;;;4.18;2.50;;;;;;;9.83;72.31;101654.84;4986343;28;20070;-70
2022/03/14 01:57:33;;;;;;;3.20;2.33;;;;;;;9.82;71.02;101661.25;4992121;28;20463;-64
2022/03/14 01:59:59;;;;;;;4.07;2.53;;;;;;;9.82;71.82;101670.25;4988911;28;20092;-65
2022/03/14 02:02:27;;;;;;;3.20;2.35;;;;;;;9.81;71.84;101668.53;4982229;28;20374;-65
2022/03/14 02:04:52;;;;;;;3.47;2.47;;;;;;;9.83;72.00;101679.28;4991792;28;20113;-65
2022/03/14 02:07:20;;;;;;;3.47;2.38;;;;;;;9.83;71.41;101668.41;4988055;28;20030;-72
2022/03/14 02:09:45;;;;;;;3.38;2.58;;;;;;;9.85;70.95;101672.81;4980178;28;20026;-70
2022/03/14 02:12:11;;;;;;;3.80;2.70;;;;;;;9.85;71.69;101672.81;4982930;28;20048;-64
2022/03/14 02:14:39;;;;;;;2.72;2.25;;;;;;;9.84;72.29;101676.50;4982228;28;20041;-64
2022/03/14 02:17:14;;;;;;;5.07;2.78;;;;;;;9.84;72.13;101684.66;5002570;28;20042;-70
2022/03/14 02:19:40;;;;;;;3.90;2.50;;;;;;;9.84;72.20;101683.75;4986987;28;20042;-64
2022/03/14 02:22:13;;;;;;;3.63;2.55;;;;;;;9.84;72.15;101690.09;4990216;28;20482;-65
2022/03/14 02:24:45;;;;;;;3.33;2.67;;;;;;;9.87;72.09;101689.03;4990035;28;20076;-64
2022/03/14 02:27:14;;;;;;;3.88;2.47;;;;;;;9.86;72.29;101695.44;4988801;28;20046;-66
2022/03/14 02:29:40;;;;;;;3.45;2.70;;;;;;;9.86;72.48;101699.03;4991817;28;20589;-69
2022/03/14 02:32:08;;;;;;;3.53;2.75;;;;;;;9.85;71.55;101691.84;4984706;28;20553;-71
2022/03/14 02:34:33;;;;;;;6.25;2.90;;;;;;;9.85;72.15;101694.56;4990586;28;20061;-71
2022/03/14 02:36:59;;;;;;;3.33;2.60;;;;;;;9.85;72.44;101694.56;4989776;28;20066;-71
2022/03/14 02:39:24;;;;;;;4.97;3.15;;;;;;;9.84;72.57;101694.63;4990842;28;20172;-63
2022/03/14 02:41:50;;;;;;;4.50;3.28;;;;;;;9.82;72.87;101697.44;4985932;28;20050;-67
2022/03/14 02:44:16;;;;;;;4.40;3.20;;;;;;;9.81;72.93;101702.97;4988683;28;20030;-71
2022/03/14 02:46:41;;;;;;;4.18;2.78;;;;;;;9.79;72.77;101700.34;4986490;28;20030;-72
2022/03/14 02:49:08;;;;;;;6.00;3.10;;;;;;;9.79;72.88;101704.88;4983398;28;20069;-71
2022/03/14 02:51:34;;;;;;;4.82;3.55;;;;;;;9.78;72.67;101705.84;4980836;28;20034;-66
2022/03/14 02:54:02;;;;;;;3.15;2.75;;;;;;;9.61;72.68;101691.38;4988074;28;20031;-65
2022/03/14 02:56:27;;;;;;;3.60;2.72;;;;;;;9.75;72.82;101722.34;4987125;28;20042;-71
2022/03/14 02:58:54;;;;;;;3.65;2.53;;;;;;;9.71;73.07;101727.06;4990817;28;20038;-65
2022/03/14 03:01:21;;;;;;;3.72;2.67;;;;;;;9.67;73.14;101733.63;4983227;28;20121;-64
2022/03/14 03:03:48;;;;;;;4.18;3.08;;;;;;;9.67;73.19;101733.63;4987829;28;20037;-64
2022/03/14 03:06:15;;;;;;;4.97;3.30;;;;;;;9.64;73.49;101736.50;4989662;28;20077;-65
2022/03/14 03:08:44;;;;;;;3.22;2.88;;;;;;;9.61;73.62;101740.28;4982477;28;20038;-65
2022/03/14 03:11:11;;;;;;;4.00;3.13;;;;;;;9.60;73.28;101745.75;4982857;28;20066;-71
2022/03/14 03:13:43;;;;;;;3.92;2.88;;;;;;;9.59;74.29;101757.59;4989484;28;20465;-65
2022/03/14 03:16:13;;;;;;;3.10;2.80;;;;;;;9.56;73.55;101758.66;4982207;28;20567;-66
2022/03/14 03:18:39;;;;;;;3.38;3.08;;;;;;;9.54;74.27;101763.28;4985442;28;20039;-66
2022/03/14 03:21:05;;;;;;;3.60;3.10;;;;;;;9.55;73.93;101769.59;4989253;28;20133;-70
2022/03/14 03:23:31;;;;;;;4.18;2.65;;;;;;;9.53;73.98;101766.97;4990310;28;20036;-63
2022/03/14 03:25:56;;;;;;;4.30;3.13;;;;;;;9.49;74.63;101778.94;4981143;28;20394;-72
2022/03/14 03:28:22;;;;;;;3.97;3.00;;;;;;;9.48;74.54;101784.47;4991139;28;20041;-71
2022/03/14 03:30:48;;;;;;;4.28;3.50;;;;;;;9.45;74.73;101785.50;4980718;28;20557;-64
2022/03/14 03:33:14;;;;;;;3.72;2.97;;;;;;;9.41;74.65;101794.75;4986725;28;20054;-65
2022/03/14 03:35:39;;;;;;;4.65;3.15;;;;;;;9.40;74.21;101804.75;4987661;28;20038;-70
2022/03/14 03:38:05;;;;;;;4.45;3.30;;;;;;;9.39;74.83;101815.72;4986669;28;20474;-70
2022/03/14 03:40:30;;;;;;;4.57;2.97;;;;;;;9.38;74.94;101813.97;4988385;28;20037;-70
2022/03/14 03:42:55;;;;;;;5.13;3.10;;;;;;;9.35;75.07;101812.25;4989938;28;20039;-70
2022/03/14 03:45:21;;;;;;;5.35;3.20;;;;;;;9.33;75.47;101822.34;4987557;28;20027;-65
2022/03/14 03:47:47;;;;;;;3.17;2.83;;;;;;;9.32;75.61;101830.53;4984778;28;20022;-70
2022/03/14 03:50:12;;;;;;;6.15;3.65;;;;;;;9.30;75.15;101827.03;4998336;28;20052;-64
2022/03/14 03:52:38;;;;;;;6.43;3.47;;;;;;;9.29;75.44;101833.44;4989454;28;20036;-72
2022/03/14 03:55:05;;;;;;;4.88;3.17;;;;;;;9.22;76.37;101832.84;4985094;28;20053;-66
2022/03/14 03:57:31;;;;;;;5.28;3.33;;;;;;;9.22;76.85;101845.56;4985300;28;20030;-67
2022/03/14 03:59:56;;;;;;;4.07;3.55;;;;;;;9.16;77.48;101850.34;4986224;28;20038;-65
2022/03/14 04:02:22;;;;;;;5.35;3.60;;;;;;;9.13;77.88;101855.03;4982277;28;20035;-66
2022/03/14 04:04:49;;;;;;;4.57;3.80;;;;;;;9.07;78.48;101860.78;4988623;28;20041;-65
2022/03/14 04:07:18;;;;;;;6.80;4.38;;;;;;;8.99;79.18;101863.88;4984207;28;20050;-64
2022/03/14 04:09:44;;;;;;;6.72;4.07;;;;;;;8.90;80.13;101872.47;4987993;28;20038;-70
2022/03/14 04:12:10;;;;;;;5.07;3.85;;;;;;;8.86;79.78;101870.84;4983573;28;20050;-69
2022/03/14 04:14:35;;;;;;;6.43;4.50;;;;;;;8.82;80.34;101875.56;4988837;28;20026;-66
2022/03/14 04:17:03;;;;;;;9.00;4.50;;;;;;;8.80;79.93;101887.44;4979402;28;20076;-72
2022/03/14 04:19:33;;;;;;;4.38;3.88;;;;;;;8.78;80.06;101890.22;4986266;28;20057;-70
2022/03/14 04:21:58;;;;;;;8.18;4.50;;;;;;;8.74;80.44;101888.63;4989053;28;20402;-63
2022/03/14 04:24:24;;;;;;;5.60;4.88;;;;;;;8.71;80.79;101894.19;4988856;28;20569;-69
2022/03/14 04:26:49;;;;;;;6.10;4.30;;;;;;;8.70;80.82;101895.13;4987629;28;20113;-71
2022/03/14 04:29:15;;;;;;;6.53;4.75;;;;;;;8.65;80.54;101902.63;4987787;28;20034;-71
2022/03/14 04:31:41;;;;;;;5.40;4.63;;;;;;;8.62;80.87;101902.75;4986264;28;20102;-71
2022/03/14 04:34:06;;;;;;;6.85;4.85;;;;;;;8.62;80.73;101909.06;4986577;28;20141;-71
2022/03/14 04:36:32;;;;;;;6.40;4.57;;;;;;;8.62;80.09;101911.78;4977973;28;20046;-64
2022/03/14 04:38:57;;;;;;;5.55;4.57;;;;;;;8.59;80.36;101909.22;4985863;28;20429;-65
2022/03/14 04:41:23;;;;;;;6.55;5.10;;;;;;;8.56;80.72;101916.63;4985762;28;20516;-69
2022/03/14 04:43:48;;;;;;;6.20;4.60;;;;;;;8.54;80.01;101924.84;4987921;28;20033;-67
2022/03/14 04:46:14;;;;;;;6.70;5.28;;;;;;;8.51;80.00;101922.25;4986236;28;20030;-70
2022/03/14 04:48:40;;;;;;;9.90;5.30;;;;;;;8.48;81.01;101922.38;4975489;28;20471;-63
2022/03/14 04:51:05;;;;;;;7.00;5.45;;;;;;;8.47;80.66;101934.19;4988150;28;20040;-64
2022/03/14 04:53:31;;;;;;;9.45;4.95;;;;;;;8.43;80.78;101933.44;4976309;28;20483;-71
2022/03/14 04:55:56;;;;;;;8.63;5.88;;;;;;;8.39;80.56;101934.56;4981753;28;20030;-70
2022/03/14 04:58:22;;;;;;;9.20;5.65;;;;;;;8.39;80.31;101942.69;4980343;28;20043;-69
2022/03/14 05:00:47;;;;;;;11.75;5.90;;;;;;;8.38;80.91;101942.75;4983378;28;20498;-65
2022/03/14 05:03:14;;;;;;;8.30;5.30;;;;;;;8.35;80.68;101953.72;4986940;28;20065;-65
2022/03/14 05:05:40;;;;;;;8.88;6.55;;;;;;;8.31;81.49;101952.97;4987983;28;20038;-72
2022/03/14 05:08:05;;;;;;;7.63;5.75;;;;;;;8.31;81.17;101962.94;4988172;28;20049;-64
2022/03/14 05:10:31;;;;;;;7.32;5.03;;;;;;;8.28;81.58;101960.34;4978415;28;20087;-64
2022/03/14 05:13:01;;;;;;;10.48;5.47;;;;;;;8.30;81.04;101974.72;4987237;28;20038;-65
2022/03/14 05:15:26;;;;;;;9.77;5.28;;;;;;;8.32;81.41;101975.53;4982800;28;20097;-69
2022/03/14 05:17:53;;;;;;;9.48;5.20;;;;;;;8.31;81.35;101981.91;4982379;28;20118;-71
2022/03/14 05:20:19;;;;;;;10.88;5.85;;;;;;;8.30;81.51;101982.84;4987739;28;20124;-66
2022/03/14 05:22:48;;;;;;;10.23;6.10;;;;;;;8.29;81.56;101983.78;4983790;28;20459;-69
2022/03/14 05:25:17;;;;;;;10.35;6.30;;;;;;;8.29;81.92;101994.66;4980947;28;20055;-63
2022/03/14 05:27:43;;;;;;;8.90;5.57;;;;;;;8.29;81.43;102000.06;4983812;28;20041;-65
2022/03/14 05:30:08;;;;;;;14.50;7.47;;;;;;;8.31;81.33;102001.78;4983110;28;20050;-65
2022/03/14 05:32:35;;;;;;;7.47;5.80;;;;;;;8.31;81.14;102009.91;4975490;28;20070;-64
2022/03/14 05:35:01;;;;;;;9.57;6.40;;;;;;;8.30;81.69;102010.88;4986758;28;20031;-64
2022/03/14 05:37:26;;;;;;;12.90;6.72;;;;;;;8.29;81.33;102014.50;4986654;28;20149;-65
2022/03/14 05:39:52;;;;;;;10.80;6.97;;;;;;;8.28;81.63;102014.56;4986471;28;20121;-66
2022/03/14 05:42:18;;;;;;;9.48;6.43;;;;;;;8.28;81.42;102029.00;4978222;28;20034;-71
2022/03/14 05:44:43;;;;;;;13.10;6.88;;;;;;;8.29;80.84;102036.19;4987932;28;20030;-64
2022/03/14 05:47:09;;;;;;;9.32;6.82;;;;;;;8.30;81.20;102039.78;4983087;28;20108;-71
2022/03/14 05:49:35;;;;;;;11.88;6.55;;;;;;;8.30;81.12;102046.09;4976854;28;20035;-71
2022/03/14 05:52:00;;;;;;;10.75;7.00;;;;;;;8.29;81.22;102044.31;4984787;28;20096;-69
2022/03/14 05:54:25;;;;;;;11.98;7.68;;;;;;;8.29;81.69;102051.56;4987666;28;20030;-71
2022/03/14 05:56:51;;;;;;;12.30;7.65;;;;;;;8.29;81.46;102060.59;4984739;28;20047;-67
2022/03/14 05:59:16;;;;;;;10.23;7.65;;;;;;;8.27;81.50;102056.19;4982388;28;20034;-72
2022/03/14 06:01:42;;;;;;;15.27;8.52;;;;;;;8.26;81.90;102063.44;4978194;28;20502;-65
2022/03/14 06:04:07;;;;;;;13.05;8.38;;;;;;;8.26;81.73;102068.00;4983332;28;20125;-64
2022/03/14 06:06:34;;;;;;;12.07;7.57;;;;;;;8.27;81.53;102067.91;4979869;28;20113;-64
2022/03/14 06:08:59;;;;;;;11.98;8.52;;;;;;;8.30;81.49;102072.31;4980438;28;20486;-68
2022/03/14 06:11:25;;;;;;;12.75;8.80;;;;;;;8.31;81.56;102083.09;4985102;28;20060;-69
2022/03/14 06:13:50;;;;;;;15.30;8.45;;;;;;;8.31;81.71;102076.81;4984578;28;20070;-65
2022/03/14 06:16:15;;;;;;;15.32;9.02;;;;;;;8.30;82.10;102084.06;4977585;28;20070;-69
2022/03/14 06:18:41;;;;;;;11.25;8.27;;;;;;;8.32;82.04;102089.41;4980540;28;20379;-71
2022/03/14 06:21:06;;;;;;;15.00;9.05;;;;;;;8.33;81.99;102091.16;4984379;28;20041;-71
2022/03/14 06:23:32;;;;;;;15.40;9.20;;;;;;;8.31;81.75;102088.53;4981541;28;20121;-68
2022/03/14 06:25:57;;;;;;;15.63;9.07;;;;;;;8.34;81.85;102099.22;4986068;28;20442;-71
2022/03/14 06:28:23;;;;;;;14.60;8.82;;;;;;;8.34;81.55;102101.94;4990354;28;20045;-70
2022/03/14 06:30:49;;;;;;;13.98;9.52;;;;;;;8.36;81.79;102104.59;4979037;28;20030;-65
2022/03/14 06:33:15;;;;;;;18.05;10.13;;;;;;;8.37;81.62;102117.25;4985742;28;20381;-71
2022/03/14 06:35:41;;;;;;;18.42;10.30;;;;;;;8.37;81.74;102111.81;4989189;28;20046;-69
2022/03/14 06:38:07;;;;;;;17.65;9.70;;;;;;;8.39;81.61;102118.03;4980981;28;20413;-64
2022/03/14 06:40:32;;;;;;;17.65;10.20;;;;;;;8.42;81.92;102118.81;4988635;28;20049;-65
2022/03/14 06:42:59;;;;;;;15.43;9.68;;;;;;;8.43;81.54;102127.81;4981555;28;20402;-65
2022/03/14 06:45:25;;;;;;;15.35;9.85;;;;;;;8.48;80.96;102133.03;4982921;28;20049;-70
2022/03/14 06:47:54;;;;;;;16.80;10.38;;;;;;;8.50;81.18;102129.34;4984000;28;20084;-71
2022/03/14 06:50:21;;;;;;;18.00;10.15;;;;;;;8.53;80.68;102133.72;4985081;28;20426;-63
2022/03/14 06:52:47;;;;;;;19.80;10.50;;;;;;;8.54;81.33;102135.50;4981740;28;20046;-69
2022/03/14 06:55:13;;;;;;;21.15;9.73;;;;;;;8.54;80.76;102135.50;4980880;28;20042;-70
2022/03/14 06:57:38;;;;;;;16.08;10.52;;;;;;;8.57;80.78;102141.66;4983393;28;20482;-64
2022/03/14 07:00:04;;;;;;;17.83;10.30;;;;;;;8.58;80.66;102135.31;4981320;28;20081;-66
2022/03/14 07:02:30;;;;;;;19.05;10.32;;;;;;;8.61;81.39;102142.41;4980113;28;20042;-71
2022/03/14 07:04:57;;;;;;;21.02;10.25;;;;;;;8.63;80.42;102148.69;4980186;28;20039;-64
2022/03/14 07:07:23;;;;;;;19.08;10.98;;;;;;;8.66;80.62;102151.22;4990604;28;20289;-68
2022/03/14 07:09:48;;;;;;;22.92;10.98;;;;;;;8.68;80.84;102152.06;4989526;28;20454;-70
2022/03/14 07:12:14;;;;;;;20.13;10.57;;;;;;;8.70;80.83;102158.28;4986840;28;20054;-71
2022/03/14 07:14:39;;;;;;;16.40;10.25;;;;;;;8.73;80.76;102160.00;4988274;28;20041;-65
2022/03/14 07:17:06;;;;;;;16.00;10.27;;;;;;;8.76;80.09;102154.44;4986872;28;20118;-64
2022/03/14 07:19:31;;;;;;;18.15;11.18;;;;;;;8.79;80.31;102159.72;4989471;28;20034;-64
2022/03/14 07:21:56;;;;;;;20.25;10.90;;;;;;;8.80;80.12;102165.06;4982884;28;20038;-71
2022/03/14 07:24:22;;;;;;;16.15;10.15;;;;;;;8.84;80.02;102171.25;4985749;28;20114;-69
2022/03/14 07:26:47;;;;;;;20.98;11.57;;;;;;;8.89;79.86;102164.69;4983754;28;20485;-66
2022/03/14 07:29:13;;;;;;;17.90;10.95;;;;;;;8.93;79.58;102171.72;4987172;28;21044;-70
2022/03/14 07:31:41;;;;;;;19.63;10.85;;;;;;;8.97;79.98;102183.34;4988058;28;20076;-64
2022/03/14 07:34:07;;;;;;;18.77;10.68;;;;;;;8.99;79.30;102175.13;4982548;28;20398;-70
2022/03/14 07:36:34;;;;;;;21.65;11.30;;;;;;;9.03;79.43;102174.03;4979089;28;20033;-65
2022/03/14 07:39:00;;;;;;;23.85;11.18;;;;;;;9.05;79.25;102174.88;4984739;28;20042;-65
2022/03/14 07:41:26;;;;;;;18.00;11.25;;;;;;;9.11;79.17;102178.19;4985926;28;20099;-64
2022/03/14 07:43:51;;;;;;;20.13;11.20;;;;;;;9.15;79.28;102174.38;4989316;28;20038;-69
2022/03/14 07:46:18;;;;;;;21.42;11.02;;;;;;;9.24;78.16;102185.78;4978357;28;20031;-70
2022/03/14 07:48:43;;;;;;;19.13;11.27;;;;;;;9.29;78.30;102184.63;4972899;28;20046;-66
2022/03/14 07:51:09;;;;;;;19.17;10.80;;;;;;;9.33;78.18;102183.53;4982588;28;20176;-66
2022/03/14 07:53:35;;;;;;;19.25;10.40;;;;;;;9.36;77.73;102182.47;4987066;28;20070;-71
2022/03/14 07:56:03;;;;;;;27.23;12.50;;;;;;;9.37;77.84;102195.09;4986612;28;20770;-65
2022/03/14 07:58:29;;;;;;;19.73;11.07;;;;;;;9.37;78.19;102195.09;4989466;28;20073;-69
2022/03/14 08:00:55;;;;;;;20.67;11.60;;;;;;;9.38;77.54;102188.75;4984408;28;20042;-66
2022/03/14 08:03:21;;;;;;;22.60;12.50;;;;;;;9.39;77.81;102198.66;4994335;28;20038;-69
2022/03/14 08:05:47;;;;;;;21.40;12.73;;;;;;;9.41;77.39;102203.03;4998383;28;20450;-68
2022/03/14 08:08:15;;;;;;;23.67;12.02;;;;;;;9.44;77.18;102210.19;4985215;28;20041;-71
2022/03/14 08:10:41;;;;;;;22.42;11.77;;;;;;;9.47;76.78;102214.63;4974626;28;20054;-65
2022/03/14 08:13:07;;;;;;;24.05;12.60;;;;;;;9.47;77.60;102223.63;4984088;28;20038;-64
2022/03/14 08:15:36;;;;;;;27.98;12.77;;;;;;;9.44;77.29;102216.50;4979248;28;20090;-70
2022/03/14 08:18:08;;;;;;;19.77;12.50;;;;;;;9.44;77.19;102218.34;4986155;28;20133;-64
2022/03/14 08:20:34;;;;;;;19.42;12.75;;;;;;;9.42;77.58;102234.72;4988623;28;20038;-72
2022/03/14 08:23:02;;;;;;;22.98;11.98;;;;;;;9.42;77.13;102240.16;4988206;28;20096;-64
2022/03/14 08:25:28;;;;;;;24.98;12.10;;;;;;;9.44;77.53;102243.66;4979145;28;20121;-70
2022/03/14 08:27:53;;;;;;;21.15;10.82;;;;;;;9.45;77.29;102252.69;4986067;28;20038;-67
2022/03/14 08:30:21;;;;;;;19.13;11.77;;;;;;;9.48;77.17;102252.56;4980389;28;20449;-64
2022/03/14 08:32:47;;;;;;;17.38;10.48;;;;;;;9.50;77.22;102253.34;4977857;28;20089;-68
2022/03/14 08:35:14;;;;;;;21.33;12.55;;;;;;;9.52;77.54;102250.59;4988238;28;20402;-64
2022/03/14 08:37:41;;;;;;;28.15;13.30;;;;;;;9.55;77.29;102259.47;4997770;28;20041;-65
2022/03/14 08:40:13;;;;;;;20.05;11.95;;;;;;;9.59;77.22;102258.38;4979406;28;20034;-65
2022/03/14 08:42:39;;;;;;;20.95;11.80;;;;;;;9.69;77.14;102261.56;4973716;28;20057;-70
2022/03/14 08:45:07;;;;;;;22.33;13.02;;;;;;;9.73;76.34;102257.75;4969537;28;20452;-72
2022/03/14 08:47:33;;;;;;;19.40;11.68;;;;;;;9.80;76.88;102271.94;4977745;28;20029;-66
2022/03/14 08:49:59;;;;;;;20.65;12.43;;;;;;;9.87;76.34;102273.41;4982863;28;20046;-72
2022/03/14 08:52:24;;;;;;;20.75;12.20;;;;;;;9.96;75.83;102268.44;4987598;28;20046;-65
2022/03/14 08:54:50;;;;;;;24.48;11.77;;;;;;;10.06;75.74;102281.59;4989245;28;20367;-64
2022/03/14 08:57:18;;;;;;;21.10;12.32;;;;;;;10.12;74.94;102290.34;4987958;28;20027;-69
2022/03/14 08:59:44;;;;;;;21.65;11.93;;;;;;;10.18;75.31;102287.34;4992052;28;20049;-64
2022/03/14 09:02:10;;;;;;;25.27;12.57;;;;;;;10.26;74.67;102297.88;4978367;28;20042;-72
2022/03/14 09:04:37;;;;;;;20.77;11.63;;;;;;;10.32;73.98;102307.59;4980768;28;20060;-69
2022/03/14 09:07:03;;;;;;;22.48;11.25;;;;;;;10.33;73.88;102310.22;4980184;28;20118;-71
2022/03/14 09:09:29;;;;;;;18.25;11.88;;;;;;;10.36;74.05;102311.94;5003329;28;20034;-70
2022/03/14 09:11:54;;;;;;;20.45;10.95;;;;;;;10.37;73.70;102319.13;4978995;28;20383;-72
2022/03/14 09:14:20;;;;;;;22.38;10.82;;;;;;;10.44;73.49;102320.59;4995753;28;20034;-64
2022/03/14 09:16:47;;;;;;;20.10;10.75;;;;;;;10.50;73.53;102319.44;4988024;28;20042;-70
2022/03/14 09:19:13;;;;;;;20.70;11.45;;;;;;;10.61;73.25;102322.50;4983291;28;20962;-69
2022/03/14 09:21:38;;;;;;;22.35;11.60;;;;;;;10.68;73.24;102321.25;4983699;28;20064;-71
2022/03/14 09:24:06;;;;;;;18.25;11.40;;;;;;;10.77;72.83;102331.69;4987080;28;20030;-70
2022/03/14 09:26:32;;;;;;;16.50;10.75;;;;;;;10.87;72.61;102333.00;4986595;28;20030;-70
2022/03/14 09:28:59;;;;;;;24.33;10.98;;;;;;;11.08;72.02;102332.84;4985969;28;20065;-70
2022/03/14 09:31:24;;;;;;;18.33;10.70;;;;;;;11.21;71.14;102336.72;4984853;28;20050;-71
2022/03/14 09:33:50;;;;;;;17.65;10.38;;;;;;;11.23;70.51;102335.66;4980902;28;20398;-65
2022/03/14 09:36:16;;;;;;;19.95;10.70;;;;;;;11.30;70.62;102338.97;4986789;28;20018;-71
2022/03/14 09:38:43;;;;;;;22.45;9.70;;;;;;;11.33;70.26;102354.25;4993381;28;20065;-70
2022/03/14 09:41:09;;;;;;;15.57;9.75;;;;;;;11.33;70.21;102357.91;4987192;28;20358;-64
2022/03/14 09:43:38;;;;;;;16.98;9.98;;;;;;;11.41;70.20;102354.75;5000473;28;20457;-70
2022/03/14 09:46:06;;;;;;;15.23;9.90;;;;;;;11.44;69.08;102366.41;4984302;28;20235;-65
2022/03/14 09:48:36;;;;;;;16.08;9.25;;;;;;;11.46;70.10;102366.31;4996426;28;20355;-70
2022/03/14 09:51:06;;;;;;;15.65;9.45;;;;;;;11.62;70.22;102372.72;4991817;28;20708;-71
2022/03/14 09:53:34;;;;;;;15.18;9.93;;;;;;;11.78;69.75;102374.66;4982466;28;20097;-69
2022/03/14 09:56:00;;;;;;;16.92;10.00;;;;;;;11.89;69.48;102386.78;4984653;28;21391;-64
2022/03/14 09:58:26;;;;;;;14.75;9.27;;;;;;;12.04;69.21;102390.53;4987627;28;20038;-69
2022/03/14 10:00:51;;;;;;;13.88;9.00;;;;;;;12.12;68.41;102390.09;4986097;28;20126;-70
2022/03/14 10:03:18;;;;;;;12.50;8.88;;;;;;;12.12;67.38;102393.72;4992337;28;20045;-71
2022/03/14 10:05:44;;;;;;;17.65;8.13;;;;;;;12.04;67.33;102393.28;5000790;28;20478;-63
2022/03/14 10:08:14;;;;;;;18.02;9.55;;;;;;;11.90;67.04;102394.00;4996028;28;20026;-69
2022/03/14 10:10:41;;;;;;;18.98;9.57;;;;;;;11.92;68.39;102400.25;4999089;28;20051;-65
2022/03/14 10:13:08;;;;;;;16.90;9.05;;;;;;;12.08;67.51;102394.88;5011040;28;20068;-65
2022/03/14 10:15:40;;;;;;;15.32;10.18;;;;;;;12.30;66.24;102389.09;4997499;28;20043;-65
2022/03/14 10:18:11;;;;;;;17.02;9.90;;;;;;;12.29;65.57;102398.25;4996513;28;20045;-69
2022/03/14 10:20:37;;;;;;;15.95;9.38;;;;;;;12.35;67.00;102399.75;5010261;28;20034;-70
2022/03/14 10:23:03;;;;;;;15.75;8.85;;;;;;;12.57;66.69;102397.63;5009988;28;20042;-72
2022/03/14 10:25:30;;;;;;;14.68;8.07;;;;;;;12.85;65.58;102404.25;4987761;28;20502;-72
2022/03/14 10:27:57;;;;;;;14.77;8.38;;;;;;;13.09;64.98;102419.22;5005631;28;20440;-65
2022/03/14 10:30:27;;;;;;;14.55;7.82;;;;;;;13.16;63.43;102408.84;4994363;28;20038;-65
2022/03/14 10:33:12;;;;;;;12.77;6.97;;;;;;;13.12;64.33;102426.38;4978848;28;20436;-66
2022/03/14 10:35:41;;;;;;;13.02;7.07;;;;;;;13.20;64.24;102422.22;5001087;28;20038;-65
2022/03/14 10:38:10;;;;;;;15.65;6.47;;;;;;;13.32;62.05;102430.72;5008434;28;20038;-70
2022/03/14 10:40:41;;;;;;;15.55;6.90;;;;;;;13.20;61.93;102437.75;4984252;28;20053;-69
2022/03/14 10:43:08;;;;;;;14.45;6.50;;;;;;;13.15;63.06;102434.38;4994354;28;20409;-64
2022/03/14 10:45:34;;;;;;;23.25;8.65;;;;;;;13.12;62.21;102437.31;4994088;28;20474;-70
2022/03/14 10:48:02;;;;;;;11.63;6.47;;;;;;;13.04;61.86;102437.75;4982571;28;20025;-64
2022/03/14 10:50:34;;;;;;;9.65;6.43;;;;;;;13.00;62.35;102437.03;4984183;28;20034;-70
2022/03/14 10:53:05;;;;;;;13.85;6.63;;;;;;;13.06;61.52;102445.88;4983239;28;20084;-70
2022/03/14 10:55:38;;;;;;;71.22;13.88;;;;;;;13.27;62.95;102441.91;4988959;28;20034;-65
2022/03/14 10:58:27;;;;;;;13.85;7.28;;;;;;;13.58;61.82;102449.19;4990369;28;20066;-72
2022/03/14 11:00:54;;;;;;;14.13;8.27;;;;;;;13.95;60.66;102449.72;4988268;28;20046;-66
2022/03/14 11:03:41;;;;;;;10.93;7.47;;;;;;;14.33;60.34;102446.47;4985478;28;20035;-65
2022/03/14 11:06:08;;;;;;;8.85;5.85;;;;;;;14.43;56.75;102448.53;4975961;28;20434;-72
2022/03/14 11:08:47;;;;;;;11.20;5.70;;;;;;;14.36;57.30;102451.72;4990034;28;20045;-65
2022/03/14 11:11:22;;;;;;;11.23;5.80;;;;;;;14.24;56.97;102448.78;4981958;28;20545;-68
2022/03/14 11:13:52;;;;;;;13.63;6.90;;;;;;;14.28;58.44;102447.63;5000972;28;20038;-68
2022/03/14 11:16:27;;;;;;;14.90;6.75;;;;;;;14.64;58.26;102457.28;4986099;28;20041;-65
2022/03/14 11:18:53;;;;;;;10.88;6.78;;;;;;;15.05;56.81;102454.56;5003434;28;20033;-69
2022/03/14 11:21:24;;;;;;;12.52;6.32;;;;;;;15.20;55.56;102455.44;5003582;28;20037;-69